首页
METAR-TAF:

METAR-TAF

机场 :

奥斯滕德, 比利时

纬度: 51-12N, 经度: 002-52E, 海拔: 4米

当前天气观测

该预报发布于35分钟前的05:50 UTC
风速8节,风向
温度 -1°C
湿度 86%
气压 1008 hPa
能見度: 6000

METAR: EBOS 210550Z 09008KT 6000 NSC M01/M03 Q1008 TEMPO 4000 BR

时间: 07:25 (06:25 UTC)

预报

该预报发布于1小时和24分钟前的05:01 UTC
预报有效从21日的 06点(UTC)到 22日的 12点(UTC)
风速10节,风向东转东南
能见度10公里或以上
1500米以下无云,无积雨云
成为
从 21日的 06点(UTC)到 21日的 08点(UTC)
能見度: 4000
多云层高于500英尺
轻雾
成为
从 21日的 10点(UTC)到 21日的 12点(UTC)
多云层高于1200英尺
成为
从 21日的 14点(UTC)到 21日的 16点(UTC)
短暂存在
从 21日的 23点(UTC)到 22日的 02点(UTC)

TAF: EBOS 210501Z 2106/2212 11010KT CAVOK BECMG 2106/2108 4000 BR BKN005 BECMG 2110/2112 BKN012 BECMG 2114/2116 NSC TEMPO 2123/2202 RA

超过4000个机场的气象观测和天气预报(METAR&TAF报告)。

可查询的气象台以黄色和红色小点在地图上表示。

将鼠标移到小点上方,可查看气象台名称。

然后点击查看天气观测和预报。

如需切换地图:点击带黑十字的绿色按钮放大地图;点击带横线的绿色按钮缩小地图;或者点击绿色箭头查看邻近地区的地图。


METAR-TAF: